Time;durP1;ratioP1;P1;durP2;ratioP2;P2;SDS_P1;SDS_P2;PMS_P1;PMS_P2;Temp;Humidity;BMP_temperature;BMP_pressure;BME280_temperature;BME280_humidity;BME280_pressure;Samples;Min_cycle;Max_cycle;Signal;HPM_P1;HPM_P2
2023/04/01 00:01:28;;;;;;;12.13;4.38;;;;;;;12.87;53.64;98864.34;3168572;28;20420;-63
2023/04/01 00:03:00;;;;;;;10.43;4.72;;;;;;;12.86;53.85;98859.19;3164817;28;20570;-63
2023/04/01 00:04:34;;;;;;;11.32;4.53;;;;;;;12.85;53.84;98852.31;3169824;28;20074;-63
2023/04/01 00:06:05;;;;;;;12.30;4.50;;;;;;;12.80;53.76;98850.00;3169452;28;20490;-63
2023/04/01 00:07:37;;;;;;;15.77;6.07;;;;;;;12.78;54.34;98840.59;3170046;28;20181;-63
2023/04/01 00:09:09;;;;;;;9.18;4.47;;;;;;;12.72;54.58;98841.91;3170271;28;20075;-63
2023/04/01 00:10:40;;;;;;;13.10;4.72;;;;;;;12.68;54.46;98850.88;3169747;28;20435;-63
2023/04/01 00:12:12;;;;;;;9.35;4.25;;;;;;;12.67;54.38;98849.19;3169845;28;20039;-63
2023/04/01 00:13:44;;;;;;;13.35;4.55;;;;;;;12.67;54.41;98852.66;3169340;28;20056;-63
2023/04/01 00:15:16;;;;;;;9.63;4.82;;;;;;;12.66;54.50;98853.59;3169987;28;20043;-64
2023/04/01 00:16:48;;;;;;;9.45;4.45;;;;;;;12.69;54.28;98858.59;3169697;28;20100;-63
2023/04/01 00:18:20;;;;;;;9.38;4.85;;;;;;;12.70;54.49;98859.44;3169347;28;20055;-63
2023/04/01 00:19:55;;;;;;;14.32;4.85;;;;;;;12.72;54.56;98862.78;3166366;28;20047;-63
2023/04/01 00:21:27;;;;;;;13.88;4.63;;;;;;;12.67;54.48;98850.03;3157471;28;20048;-64
2023/04/01 00:22:58;;;;;;;10.23;4.13;;;;;;;12.72;54.62;98854.94;3169925;28;20059;-63
2023/04/01 00:24:30;;;;;;;10.32;4.63;;;;;;;12.70;54.33;98862.88;3163164;28;20044;-64
2023/04/01 00:26:02;;;;;;;11.10;4.15;;;;;;;12.70;54.45;98872.50;3168631;28;20105;-64
2023/04/01 00:27:34;;;;;;;9.93;4.40;;;;;;;12.71;54.58;98863.72;3168455;28;20047;-64
2023/04/01 00:29:06;;;;;;;10.13;5.28;;;;;;;12.70;54.55;98867.28;3166898;28;20082;-64
2023/04/01 00:30:38;;;;;;;13.35;4.80;;;;;;;12.61;54.47;98865.28;3169554;28;20048;-64
2023/04/01 00:32:10;;;;;;;14.40;5.60;;;;;;;12.61;54.75;98866.13;3169659;28;20451;-64
2023/04/01 00:33:42;;;;;;;14.70;6.15;;;;;;;12.56;54.77;98872.59;3169358;28;20432;-64
2023/04/01 00:35:16;;;;;;;12.88;5.88;;;;;;;12.48;54.71;98866.13;3162352;28;20040;-64
2023/04/01 00:36:48;;;;;;;16.10;5.93;;;;;;;12.43;54.83;98856.94;3163620;28;20063;-63
2023/04/01 00:38:20;;;;;;;18.77;6.65;;;;;;;12.42;54.64;98863.94;3169725;28;20058;-64
2023/04/01 00:39:51;;;;;;;15.85;7.70;;;;;;;12.33;54.34;98856.72;3169655;28;20064;-64
2023/04/01 00:41:23;;;;;;;15.98;6.97;;;;;;;12.32;54.47;98864.66;3169299;28;20100;-63
2023/04/01 00:42:54;;;;;;;12.63;6.25;;;;;;;12.28;54.26;98864.03;3168842;28;20091;-64
2023/04/01 00:44:28;;;;;;;20.63;6.65;;;;;;;12.27;54.23;98865.81;3169338;28;20054;-64
2023/04/01 00:45:59;;;;;;;12.70;6.70;;;;;;;12.26;54.68;98866.72;3169042;28;20048;-64
2023/04/01 00:47:31;;;;;;;15.15;6.20;;;;;;;12.24;54.22;98862.53;3169649;28;20127;-64
2023/04/01 00:49:03;;;;;;;16.50;6.80;;;;;;;12.21;54.27;98853.13;3169920;28;20047;-64
2023/04/01 00:50:37;;;;;;;13.77;6.65;;;;;;;12.15;54.47;98855.34;3169285;28;20486;-64
2023/04/01 00:52:13;;;;;;;13.65;5.95;;;;;;;12.13;54.63;98855.44;3169435;28;20066;-64
2023/04/01 00:53:51;;;;;;;13.05;6.53;;;;;;;12.01;54.25;98854.50;3169694;28;20522;-64
2023/04/01 00:55:23;;;;;;;13.75;6.40;;;;;;;11.72;54.60;98811.19;3169790;28;20676;-64
2023/04/01 00:57:00;;;;;;;12.50;6.10;;;;;;;12.04;54.43;98856.91;3169302;28;20572;-64
2023/04/01 00:58:35;;;;;;;12.40;6.30;;;;;;;12.03;54.87;98859.59;3160162;28;20050;-63
2023/04/01 01:00:13;;;;;;;14.40;6.75;;;;;;;12.02;54.80;98863.16;3168116;28;20059;-64
2023/04/01 01:01:45;;;;;;;12.35;6.43;;;;;;;11.98;54.87;98856.44;3166261;28;20383;-64
2023/04/01 01:03:17;;;;;;;13.73;6.65;;;;;;;11.97;54.61;98854.78;3166614;28;20062;-64
2023/04/01 01:04:48;;;;;;;15.45;6.53;;;;;;;11.94;54.63;98849.78;3169256;28;20054;-64
2023/04/01 01:06:38;;;;;;;14.65;6.85;;;;;;;11.48;55.10;98787.56;3169416;28;20065;-64
2023/04/01 01:08:19;;;;;;;10.48;5.93;;;;;;;11.86;54.84;98852.91;3169595;28;20062;-64
2023/04/01 01:10:00;;;;;;;12.23;6.30;;;;;;;11.82;55.04;98854.81;3170013;28;20058;-64
2023/04/01 01:11:37;;;;;;;13.65;6.43;;;;;;;11.81;55.24;98847.09;3169038;28;20457;-62
2023/04/01 01:13:16;;;;;;;17.20;6.57;;;;;;;11.84;55.29;98849.50;3164496;28;20075;-62
2023/04/01 01:14:59;;;;;;;18.92;7.50;;;;;;;11.86;54.99;98849.44;3169703;28;20058;-63
2023/04/01 01:16:37;;;;;;;13.73;6.53;;;;;;;11.88;54.92;98850.16;3169314;28;20051;-63
2023/04/01 01:18:17;;;;;;;13.45;6.20;;;;;;;11.91;55.13;98845.59;3165485;28;20320;-63
2023/04/01 01:20:36;;;;;;;16.70;6.43;;;;;;;11.86;54.77;98832.03;3165806;28;20048;-63
2023/04/01 01:22:28;;;;;;;11.98;6.07;;;;;;;11.91;54.86;98845.59;3161714;28;20039;-63
2023/04/01 01:24:30;;;;;;;20.10;6.10;;;;;;;11.97;54.81;98855.63;3169247;28;20116;-63
2023/04/01 01:26:26;;;;;;;12.88;6.00;;;;;;;11.98;55.05;98851.22;3169271;28;20043;-63
2023/04/01 01:28:16;;;;;;;13.30;6.45;;;;;;;11.99;55.00;98855.53;3160043;28;20440;-63
2023/04/01 01:30:02;;;;;;;18.33;6.32;;;;;;;11.75;55.16;98811.00;3159947;28;20048;-63
2023/04/01 01:31:38;;;;;;;12.30;6.00;;;;;;;11.86;55.15;98831.16;3171800;28;20517;-63
2023/04/01 01:33:30;;;;;;;20.40;6.55;;;;;;;12.03;55.23;98849.97;3171944;28;20055;-63
2023/04/01 01:35:20;;;;;;;13.38;6.30;;;;;;;12.02;55.23;98848.31;3157224;28;20082;-63
2023/04/01 01:36:58;;;;;;;15.57;6.13;;;;;;;12.06;54.89;98848.94;3171870;28;20056;-63
2023/04/01 01:38:33;;;;;;;11.55;6.05;;;;;;;12.08;55.28;98844.47;3171587;28;20043;-64
2023/04/01 01:40:09;;;;;;;12.05;6.20;;;;;;;12.10;55.24;98839.13;3171999;28;20048;-63
2023/04/01 01:41:44;;;;;;;16.88;6.60;;;;;;;12.11;55.25;98835.59;3170600;28;20043;-63
2023/04/01 01:43:20;;;;;;;13.63;6.18;;;;;;;12.12;55.12;98830.28;3167346;28;20040;-63
2023/04/01 01:44:54;;;;;;;13.93;6.30;;;;;;;12.11;55.01;98833.84;3171887;28;20457;-63
2023/04/01 01:46:29;;;;;;;12.27;6.38;;;;;;;12.13;54.99;98834.56;3171890;28;20149;-63
2023/04/01 01:48:02;;;;;;;14.75;6.43;;;;;;;12.11;55.17;98833.00;3161505;28;20051;-64
2023/04/01 01:49:37;;;;;;;16.00;6.38;;;;;;;12.09;55.05;98832.25;3161597;28;20043;-64
2023/04/01 01:51:10;;;;;;;12.55;6.07;;;;;;;11.76;55.22;98773.53;3161465;28;20294;-63
2023/04/01 01:52:40;;;;;;;;;;;;;;;12.01;55.03;98830.19;3162055;28;20494;-64
2023/04/01 01:54:14;;;;;;;11.20;5.80;;;;;;;11.99;55.42;98827.66;3162183;28;19967;-63
2023/04/01 01:55:47;;;;;;;;;;;;;;;11.94;55.17;98819.28;3163485;28;20051;-63
2023/04/01 01:57:24;;;;;;;10.13;5.57;;;;;;;11.81;55.16;98792.31;3161515;28;19931;-63
2023/04/01 01:58:59;;;;;;;13.48;6.03;;;;;;;11.95;55.19;98809.69;3149465;28;20054;-63
2023/04/01 02:00:30;;;;;;;13.60;6.47;;;;;;;11.97;55.44;98808.66;3162402;28;20157;-63
2023/04/01 02:02:07;;;;;;;17.55;7.25;;;;;;;11.98;55.60;98806.88;3156357;28;20175;-63
2023/04/01 02:03:42;;;;;;;15.95;7.45;;;;;;;11.95;55.65;98813.16;3150212;28;20402;-62
2023/04/01 02:05:17;;;;;;;17.17;7.63;;;;;;;11.90;55.64;98811.78;3161257;28;20058;-63
2023/04/01 02:06:54;;;;;;;13.10;6.80;;;;;;;11.86;55.77;98813.75;3161130;28;20055;-62
2023/04/01 02:08:29;;;;;;;15.05;6.65;;;;;;;11.84;55.60;98805.16;3161587;28;20435;-64
2023/04/01 02:10:00;;;;;;;16.23;7.80;;;;;;;11.80;55.78;98801.06;3161271;28;20058;-63
2023/04/01 02:11:37;;;;;;;18.27;8.52;;;;;;;11.76;55.61;98804.81;3161162;28;21560;-63
2023/04/01 02:13:16;;;;;;;20.92;8.43;;;;;;;11.69;55.95;98803.56;3155809;28;20504;-63
2023/04/01 02:14:54;;;;;;;14.38;7.15;;;;;;;11.64;56.02;98797.81;3159687;28;20087;-63
2023/04/01 02:16:30;;;;;;;14.20;7.78;;;;;;;11.58;56.25;98797.28;3161365;28;20052;-63
2023/04/01 02:18:02;;;;;;;15.43;7.90;;;;;;;11.53;56.52;98806.31;3161642;28;20055;-63
2023/04/01 02:19:39;;;;;;;16.60;9.10;;;;;;;11.47;56.45;98801.50;3162460;28;20380;-62
2023/04/01 02:21:12;;;;;;;22.13;8.07;;;;;;;11.46;56.60;98816.31;3161417;28;20368;-62
2023/04/01 02:22:49;;;;;;;16.60;7.57;;;;;;;11.08;56.55;98770.09;3162187;28;20260;-63
2023/04/01 02:24:24;;;;;;;16.98;7.15;;;;;;;11.40;56.71;98829.75;3161989;28;20422;-63
2023/04/01 02:25:56;;;;;;;14.38;7.60;;;;;;;11.36;56.51;98830.91;3161746;27;20509;-64
2023/04/01 02:27:29;;;;;;;19.08;8.38;;;;;;;11.35;56.72;98831.81;3157513;28;20055;-64
2023/04/01 02:29:03;;;;;;;16.02;8.13;;;;;;;11.33;56.54;98828.47;3157679;28;20142;-63
2023/04/01 02:30:36;;;;;;;15.90;8.57;;;;;;;11.32;56.60;98818.97;3161786;28;20067;-63
2023/04/01 02:32:10;;;;;;;18.98;9.30;;;;;;;11.29;56.80;98811.34;3161656;28;20808;-63
2023/04/01 02:33:43;;;;;;;15.13;8.20;;;;;;;11.28;56.71;98807.91;3161372;28;20840;-64
2023/04/01 02:35:16;;;;;;;17.90;8.50;;;;;;;11.26;56.68;98801.13;3162180;28;20059;-63
2023/04/01 02:36:49;;;;;;;15.63;8.43;;;;;;;11.22;56.56;98797.88;3161038;28;20499;-64
2023/04/01 02:38:22;;;;;;;21.27;9.77;;;;;;;11.20;56.49;98789.31;3160819;28;20139;-63
2023/04/01 02:39:54;;;;;;;15.27;8.05;;;;;;;11.16;56.58;98796.50;3161364;28;20063;-63
2023/04/01 02:41:25;;;;;;;18.33;9.57;;;;;;;11.14;56.65;98793.16;3157285;28;20446;-63
2023/04/01 02:42:57;;;;;;;14.65;9.63;;;;;;;11.12;56.74;98794.16;3160366;28;20087;-63
2023/04/01 02:44:29;;;;;;;16.55;8.60;;;;;;;11.09;56.61;98789.16;3161246;28;20086;-63
2023/04/01 02:46:00;;;;;;;20.40;9.32;;;;;;;11.07;56.93;98789.28;3161608;28;20061;-63
2023/04/01 02:47:32;;;;;;;17.77;9.82;;;;;;;11.05;56.76;98792.91;3161598;28;20055;-64
2023/04/01 02:49:05;;;;;;;14.75;8.77;;;;;;;11.00;57.13;98795.78;3161510;28;20415;-65
2023/04/01 02:50:35;;;;;;;18.17;8.98;;;;;;;11.00;57.09;98810.59;3161446;28;20047;-62
2023/04/01 02:52:07;;;;;;;19.75;9.25;;;;;;;10.99;56.95;98799.31;3161180;28;20123;-64
2023/04/01 02:53:41;;;;;;;16.85;9.73;;;;;;;10.93;57.14;98794.50;3161330;28;20058;-64
2023/04/01 02:55:13;;;;;;;16.33;8.60;;;;;;;10.95;57.44;98799.63;3161120;28;20113;-62
2023/04/01 02:56:45;;;;;;;18.90;9.20;;;;;;;10.94;57.33;98798.78;3161524;28;20059;-64
2023/04/01 02:58:17;;;;;;;20.02;9.35;;;;;;;10.93;57.08;98795.34;3154643;28;20533;-64
2023/04/01 02:59:49;;;;;;;24.13;9.73;;;;;;;10.91;57.28;98791.16;3157172;28;20142;-62
2023/04/01 03:01:22;;;;;;;21.92;8.88;;;;;;;10.89;57.11;98787.81;3161949;28;20164;-64
2023/04/01 03:02:53;;;;;;;;;;;;;;;10.79;57.24;98786.72;3154989;28;20055;-62
2023/04/01 03:04:25;;;;;;;13.88;8.18;;;;;;;10.76;57.46;98790.34;3160959;28;19949;-63
2023/04/01 03:05:58;;;;;;;17.38;8.73;;;;;;;10.77;57.68;98786.81;3161936;28;20146;-63
2023/04/01 03:07:30;;;;;;;16.98;9.30;;;;;;;10.78;57.69;98790.25;3161158;28;20572;-62
2023/04/01 03:09:04;;;;;;;18.55;9.20;;;;;;;10.73;57.58;98779.28;3160400;28;20055;-62
2023/04/01 03:10:36;;;;;;;19.00;9.48;;;;;;;10.77;57.85;98793.81;3153038;28;20053;-62
2023/04/01 03:12:07;;;;;;;22.38;9.35;;;;;;;10.68;57.90;98798.66;3160468;28;20050;-62
2023/04/01 03:13:39;;;;;;;16.98;8.93;;;;;;;10.55;57.98;98800.31;3151795;28;20162;-62
2023/04/01 03:15:11;;;;;;;19.20;9.80;;;;;;;10.45;58.38;98812.22;3160651;28;20108;-62
2023/04/01 03:16:43;;;;;;;19.02;9.27;;;;;;;10.37;58.68;98798.81;3160478;28;20054;-62
2023/04/01 03:18:14;;;;;;;16.40;8.35;;;;;;;10.32;58.84;98799.09;3148052;28;20254;-63
2023/04/01 03:19:46;;;;;;;16.92;8.52;;;;;;;10.28;58.83;98796.78;3158784;28;20454;-63
2023/04/01 03:21:19;;;;;;;20.23;9.90;;;;;;;10.27;58.83;98805.53;3160484;28;20063;-63
2023/04/01 03:22:51;;;;;;;18.88;9.20;;;;;;;10.21;58.97;98791.91;3160528;28;20055;-63
2023/04/01 03:24:25;;;;;;;22.50;9.05;;;;;;;10.20;59.06;98792.84;3160307;28;20055;-64
2023/04/01 03:25:57;;;;;;;18.48;10.15;;;;;;;10.16;59.18;98796.53;3160411;28;20676;-63
2023/04/01 03:27:29;;;;;;;20.00;9.23;;;;;;;10.12;59.21;98787.25;3160060;28;20527;-62
2023/04/01 03:29:01;;;;;;;21.38;9.23;;;;;;;10.06;59.35;98776.34;3157098;28;20512;-63
2023/04/01 03:30:33;;;;;;;20.35;10.82;;;;;;;9.90;59.70;98763.44;3161687;28;20535;-63
2023/04/01 03:32:05;;;;;;;18.08;9.32;;;;;;;9.95;59.58;98783.03;3160299;28;20511;-63
2023/04/01 03:33:36;;;;;;;17.52;9.73;;;;;;;9.58;59.76;98734.94;3159626;28;20047;-63
2023/04/01 03:35:10;;;;;;;19.67;9.30;;;;;;;9.90;59.79;98782.47;3153146;28;20614;-63
2023/04/01 03:36:42;;;;;;;20.95;9.00;;;;;;;9.88;59.86;98781.75;3159924;28;20127;-63
2023/04/01 03:38:14;;;;;;;18.23;9.18;;;;;;;9.88;60.10;98773.94;3159726;28;20116;-62
2023/04/01 03:39:47;;;;;;;19.55;9.35;;;;;;;9.89;59.97;98769.56;3159889;28;20048;-63
2023/04/01 03:41:19;;;;;;;15.35;8.90;;;;;;;9.87;60.34;98758.41;3160401;28;20098;-63
2023/04/01 03:42:51;;;;;;;24.70;10.23;;;;;;;9.86;59.82;98759.34;3159532;28;20046;-63
2023/04/01 03:44:23;;;;;;;19.75;9.68;;;;;;;9.87;59.91;98758.41;3160878;28;20149;-63
2023/04/01 03:45:57;;;;;;;19.67;9.27;;;;;;;9.87;59.96;98759.25;3167139;28;20112;-62
2023/04/01 03:47:29;;;;;;;16.23;9.90;;;;;;;9.86;60.09;98767.16;3169624;28;20436;-63
2023/04/01 03:49:01;;;;;;;18.75;9.93;;;;;;;9.80;60.14;98766.59;3168940;28;20460;-63
2023/04/01 03:50:35;;;;;;;21.65;9.27;;;;;;;9.83;60.37;98769.94;3169917;28;20409;-63
2023/04/01 03:52:11;;;;;;;22.08;9.52;;;;;;;9.82;60.31;98774.31;3169665;28;20051;-62
2023/04/01 03:53:41;;;;;;;18.33;9.88;;;;;;;9.78;60.17;98771.03;3164461;28;20474;-62
2023/04/01 03:55:15;;;;;;;19.48;9.05;;;;;;;9.81;60.38;98777.81;3167698;28;20048;-62
2023/04/01 03:56:47;;;;;;;18.10;9.13;;;;;;;9.78;60.29;98772.78;3169541;28;20104;-63
2023/04/01 03:58:19;;;;;;;19.60;9.25;;;;;;;9.76;60.31;98762.50;3168587;28;20047;-63
2023/04/01 03:59:50;;;;;;;16.35;8.43;;;;;;;9.75;60.47;98768.59;3170089;28;20457;-63
2023/04/01 04:01:23;;;;;;;16.30;10.18;;;;;;;9.73;60.26;98754.00;3169938;28;20040;-62
2023/04/01 04:02:56;;;;;;;26.30;9.73;;;;;;;9.66;60.63;98753.53;3166793;28;20047;-62
2023/04/01 04:04:28;;;;;;;20.90;9.90;;;;;;;9.64;60.53;98750.19;3170011;28;20055;-63
2023/04/01 04:06:00;;;;;;;18.83;9.13;;;;;;;9.64;60.71;98745.00;3165715;28;20048;-62
2023/04/01 04:07:32;;;;;;;14.45;7.85;;;;;;;9.63;60.86;98751.13;3170102;28;20051;-62
2023/04/01 04:09:03;;;;;;;13.52;7.60;;;;;;;9.59;60.76;98754.84;3169675;28;20120;-62
2023/04/01 04:10:36;;;;;;;20.67;8.52;;;;;;;9.59;60.88;98754.84;3169848;28;20081;-62
2023/04/01 04:12:08;;;;;;;16.70;8.77;;;;;;;9.60;60.97;98759.09;3169135;28;20051;-62
2023/04/01 04:13:40;;;;;;;16.13;8.45;;;;;;;9.63;61.00;98761.53;3159197;28;20044;-62
2023/04/01 04:15:12;;;;;;;17.70;8.35;;;;;;;9.67;61.00;98762.16;3166531;28;20508;-62
2023/04/01 04:16:44;;;;;;;19.38;7.65;;;;;;;9.68;61.30;98743.91;3168372;28;20453;-62
2023/04/01 04:18:16;;;;;;;17.85;8.23;;;;;;;9.71;61.36;98750.69;3169824;28;20178;-62
2023/04/01 04:19:48;;;;;;;16.85;7.38;;;;;;;9.73;61.12;98744.47;3166799;28;20401;-62
2023/04/01 04:21:20;;;;;;;18.10;8.02;;;;;;;9.74;61.46;98745.31;3163631;28;20103;-62
2023/04/01 04:22:52;;;;;;;15.65;7.75;;;;;;;9.77;61.30;98750.31;3169448;28;20043;-63
2023/04/01 04:24:23;;;;;;;19.15;7.63;;;;;;;9.76;61.27;98752.09;3169771;28;20045;-65
2023/04/01 04:25:58;;;;;;;16.88;7.32;;;;;;;9.83;61.57;98762.13;3169837;28;20047;-62
2023/04/01 04:27:30;;;;;;;15.00;7.65;;;;;;;9.86;61.57;98759.34;3161800;28;20127;-65
2023/04/01 04:29:03;;;;;;;11.15;6.90;;;;;;;9.88;61.50;98762.69;3158513;28;20048;-63
2023/04/01 04:30:35;;;;;;;15.00;7.10;;;;;;;9.90;61.53;98751.25;3168930;28;20084;-64
2023/04/01 04:32:07;;;;;;;20.25;8.25;;;;;;;9.91;61.48;98749.50;3169306;28;20044;-67
2023/04/01 04:33:38;;;;;;;15.27;6.82;;;;;;;9.23;61.41;98633.91;3157519;28;20086;-62
2023/04/01 04:35:10;;;;;;;14.38;6.93;;;;;;;9.99;61.51;98753.31;3157711;28;20040;-63
2023/04/01 04:36:42;;;;;;;11.70;6.30;;;;;;;10.02;61.52;98744.50;3167936;28;20052;-64
2023/04/01 04:38:14;;;;;;;11.93;7.18;;;;;;;10.05;61.53;98752.13;3169118;28;20108;-64
2023/04/01 04:39:46;;;;;;;16.73;6.95;;;;;;;10.04;61.66;98753.06;3168993;28;20063;-61
2023/04/01 04:41:21;;;;;;;17.02;7.18;;;;;;;10.02;61.49;98760.09;3168806;28;20500;-64
2023/04/01 04:42:52;;;;;;;18.17;7.20;;;;;;;10.01;61.87;98767.06;3166000;28;20040;-62
2023/04/01 04:44:24;;;;;;;63.85;34.30;;;;;;;9.98;61.73;98743.03;3168390;28;20050;-64
2023/04/01 04:45:56;;;;;;;106.30;52.13;;;;;;;10.03;62.05;98751.41;3162916;28;20052;-67
2023/04/01 04:47:28;;;;;;;64.78;34.88;;;;;;;10.05;62.06;98752.13;3158466;28;20113;-66
2023/04/01 04:48:59;;;;;;;22.83;10.80;;;;;;;10.08;62.14;98753.69;3169397;28;20059;-67
2023/04/01 04:50:31;;;;;;;15.57;7.45;;;;;;;10.12;62.15;98758.66;3169776;28;20651;-65
2023/04/01 04:52:03;;;;;;;14.95;6.05;;;;;;;10.15;62.38;98765.44;3169559;28;20055;-66
2023/04/01 04:53:35;;;;;;;9.32;6.05;;;;;;;10.16;62.51;98762.72;3168911;28;20129;-63
2023/04/01 04:55:08;;;;;;;20.88;6.38;;;;;;;10.20;62.13;98766.84;3169330;28;20509;-63
2023/04/01 04:56:41;;;;;;;16.10;6.80;;;;;;;10.26;62.33;98770.81;3169435;28;20157;-67
2023/04/01 04:58:14;;;;;;;12.88;5.85;;;;;;;10.29;62.16;98768.03;3162875;28;20044;-65
2023/04/01 04:59:46;;;;;;;11.88;5.97;;;;;;;10.35;62.20;98765.09;3164091;28;20047;-65
2023/04/01 05:01:18;;;;;;;10.98;6.90;;;;;;;10.40;62.23;98768.25;3169042;28;20044;-71
2023/04/01 05:02:50;;;;;;;14.68;5.97;;;;;;;10.45;62.03;98765.38;3169548;28;20120;-64
2023/04/01 05:04:22;;;;;;;13.32;6.40;;;;;;;10.52;62.13;98758.84;3171266;28;20056;-65
2023/04/01 05:05:54;;;;;;;29.17;16.52;;;;;;;10.59;61.93;98752.34;3172440;28;20051;-64
2023/04/01 05:07:25;;;;;;;40.13;19.73;;;;;;;10.66;61.48;98755.41;3171861;28;20047;-65
2023/04/01 05:08:57;;;;;;;87.03;37.00;;;;;;;10.74;61.50;98757.50;3171734;28;20047;-65
2023/04/01 05:10:30;;;;;;;66.55;32.25;;;;;;;10.81;61.62;98764.03;3171851;28;20070;-64
2023/04/01 05:12:03;;;;;;;15.05;7.20;;;;;;;10.78;61.20;98757.22;3171168;28;20047;-63
2023/04/01 05:13:34;;;;;;;;;;;;;;;10.86;60.72;98762.81;3171300;28;20083;-64
2023/04/01 05:15:07;;;;;;;16.02;7.10;;;;;;;10.92;61.10;98766.78;3171152;28;20328;-62
2023/04/01 05:16:39;;;;;;;17.08;7.43;;;;;;;10.98;60.97;98771.63;3169775;28;20055;-64
2023/04/01 05:18:11;;;;;;;13.23;6.28;;;;;;;10.96;60.74;98768.25;3170691;28;20524;-65
2023/04/01 05:19:43;;;;;;;14.93;6.43;;;;;;;10.97;60.56;98764.72;3170180;28;20063;-62
2023/04/01 05:21:16;;;;;;;14.52;6.05;;;;;;;10.66;60.58;98703.31;3169771;28;20138;-63
2023/04/01 05:22:47;;;;;;;12.70;5.85;;;;;;;11.00;60.80;98753.28;3166391;28;20654;-63
2023/04/01 05:24:19;;;;;;;11.95;5.95;;;;;;;11.05;60.56;98752.03;3169018;28;20040;-65
2023/04/01 05:25:52;;;;;;;15.52;6.15;;;;;;;11.10;60.34;98749.16;3169726;28;20440;-66
2023/04/01 05:27:25;;;;;;;13.27;6.05;;;;;;;11.13;60.21;98749.78;3168485;28;20051;-62
2023/04/01 05:28:57;;;;;;;11.40;5.93;;;;;;;11.10;60.09;98741.34;3169268;28;20071;-65
2023/04/01 05:30:29;;;;;;;18.40;6.63;;;;;;;11.18;60.25;98746.91;3170537;28;20078;-67
2023/04/01 05:32:01;;;;;;;12.77;6.28;;;;;;;11.23;60.33;98751.81;3168521;28;20440;-69
2023/04/01 05:33:34;;;;;;;37.50;18.17;;;;;;;11.27;60.30;98750.66;3170185;28;20062;-66
2023/04/01 05:35:07;;;;;;;24.77;13.43;;;;;;;11.29;60.21;98743.59;3171374;28;20055;-64
2023/04/01 05:36:38;;;;;;;17.27;6.60;;;;;;;11.29;59.80;98741.81;3171653;28;20047;-63
2023/04/01 05:38:10;;;;;;;15.02;5.65;;;;;;;11.30;60.17;98740.91;3171070;28;20562;-65
2023/04/01 05:39:42;;;;;;;20.58;9.35;;;;;;;11.29;60.07;98734.00;3171268;28;20059;-63
2023/04/01 05:41:15;;;;;;;16.13;6.65;;;;;;;10.81;59.82;98649.44;3171374;28;20051;-63
2023/04/01 05:42:48;;;;;;;14.02;6.70;;;;;;;11.33;60.10;98714.63;3169043;28;20055;-64
2023/04/01 05:44:20;;;;;;;15.82;6.55;;;;;;;11.35;59.87;98719.72;3166579;28;20059;-67
2023/04/01 05:45:52;;;;;;;15.32;5.70;;;;;;;11.36;59.82;98718.81;3170856;28;20055;-66
2023/04/01 05:47:23;;;;;;;19.17;6.07;;;;;;;11.38;60.10;98719.53;3171422;28;20114;-65
2023/04/01 05:48:54;;;;;;;15.80;5.70;;;;;;;11.41;60.04;98713.28;3168733;28;20103;-64
2023/04/01 05:50:26;;;;;;;14.23;5.25;;;;;;;11.41;60.13;98706.28;3171017;28;20052;-66
2023/04/01 05:51:58;;;;;;;11.80;5.57;;;;;;;11.34;59.76;98699.81;3171031;28;20071;-65
2023/04/01 05:53:30;;;;;;;17.15;4.82;;;;;;;11.29;60.27;98697.50;3167876;28;20369;-65
2023/04/01 05:55:02;;;;;;;12.02;5.43;;;;;;;11.21;60.10;98688.50;3167227;28;20055;-66
2023/04/01 05:56:34;;;;;;;13.98;5.93;;;;;;;11.17;60.43;98685.28;3159049;28;20052;-65
2023/04/01 05:58:07;;;;;;;13.73;6.15;;;;;;;11.14;60.38;98691.53;3165441;28;20082;-66
2023/04/01 05:59:39;;;;;;;27.88;7.90;;;;;;;11.14;60.45;98681.09;3170737;28;20047;-66
2023/04/01 06:01:12;;;;;;;18.80;6.07;;;;;;;11.19;60.35;98680.81;3171353;28;20051;-64
2023/04/01 06:02:43;;;;;;;14.50;5.70;;;;;;;11.12;60.86;98669.97;3164041;28;20055;-65
2023/04/01 06:04:16;;;;;;;15.02;5.45;;;;;;;11.15;60.86;98693.22;3171136;28;20051;-65
2023/04/01 06:05:48;;;;;;;;;;;;;;;11.16;60.75;98694.03;3172156;28;20051;-65
2023/04/01 06:07:19;;;;;;;18.38;5.88;;;;;;;11.19;60.92;98688.63;3171339;28;20264;-65
2023/04/01 06:08:53;;;;;;;22.23;6.85;;;;;;;11.21;60.81;98684.16;3169020;28;20098;-65
2023/04/01 06:10:39;;;;;;;14.07;5.78;;;;;;;11.21;61.01;98706.75;3160803;28;20056;-65
2023/04/01 06:12:33;;;;;;;15.05;5.18;;;;;;;11.18;60.76;98693.94;3171489;28;20047;-65
2023/04/01 06:14:25;;;;;;;14.93;5.68;;;;;;;11.21;61.16;98670.28;3164301;28;20048;-67
2023/04/01 06:16:05;;;;;;;13.77;5.55;;;;;;;11.20;61.09;98660.78;3169848;28;20047;-66
2023/04/01 06:17:53;;;;;;;15.60;6.22;;;;;;;11.10;61.40;98652.75;3171129;28;20043;-65
2023/04/01 06:19:37;;;;;;;14.23;5.57;;;;;;;11.09;61.46;98657.13;3171379;28;20083;-64
2023/04/01 06:21:29;;;;;;;10.98;5.32;;;;;;;11.08;61.59;98652.00;3169276;28;20047;-65
2023/04/01 06:23:33;;;;;;;17.05;6.28;;;;;;;11.05;61.84;98650.44;3167026;28;20048;-64
2023/04/01 06:25:26;;;;;;;16.45;6.10;;;;;;;11.03;61.52;98647.13;3161024;28;20173;-65
2023/04/01 06:27:05;;;;;;;14.02;7.25;;;;;;;11.12;61.77;98654.34;3171176;28;20044;-65
2023/04/01 06:29:00;;;;;;;13.35;6.03;;;;;;;11.18;61.89;98658.31;3166471;28;20101;-65
2023/04/01 06:30:41;;;;;;;15.23;6.18;;;;;;;11.20;61.67;98668.63;3170843;27;20102;-65
2023/04/01 06:32:39;;;;;;;16.17;7.05;;;;;;;11.19;61.32;98659.97;3170979;28;20051;-65
2023/04/01 06:34:28;;;;;;;12.98;6.07;;;;;;;10.80;61.52;98604.34;3170949;28;20101;-64
2023/04/01 06:36:16;;;;;;;14.95;6.05;;;;;;;11.20;61.29;98666.84;3171347;28;20059;-65
2023/04/01 06:38:27;;;;;;;12.43;5.30;;;;;;;10.57;61.35;98556.34;3170682;28;20048;-66
2023/04/01 06:40:13;;;;;;;12.27;5.10;;;;;;;11.10;62.05;98648.38;3168435;27;20096;-65
2023/04/01 06:42:12;;;;;;;12.40;5.25;;;;;;;11.21;62.12;98663.31;3170734;28;20051;-65
2023/04/01 06:43:55;;;;;;;11.48;5.35;;;;;;;11.25;62.11;98661.34;3169672;28;20540;-66
2023/04/01 06:45:37;;;;;;;14.73;6.30;;;;;;;11.29;61.98;98657.56;3170580;28;20448;-66
2023/04/01 06:47:24;;;;;;;9.98;5.40;;;;;;;11.27;62.01;98662.91;3165829;28;20048;-65
2023/04/01 06:49:10;;;;;;;13.00;6.15;;;;;;;11.22;62.54;98658.94;3170827;28;20111;-65
2023/04/01 06:50:50;;;;;;;20.65;7.10;;;;;;;11.14;62.74;98657.66;3171155;28;20055;-65
2023/04/01 06:52:32;;;;;;;15.82;6.00;;;;;;;11.10;62.82;98650.97;3162053;28;20043;-65
2023/04/01 06:54:10;;;;;;;11.25;5.72;;;;;;;11.07;62.91;98659.00;3170974;28;20040;-65
2023/04/01 06:55:45;;;;;;;16.95;6.35;;;;;;;11.11;63.33;98663.06;3171150;28;20054;-65
2023/04/01 06:57:25;;;;;;;12.43;6.18;;;;;;;11.19;63.03;98659.97;3170574;28;20055;-65
2023/04/01 06:59:01;;;;;;;13.55;6.68;;;;;;;10.92;63.31;98618.31;3159324;28;20102;-65
2023/04/01 07:00:35;;;;;;;16.88;6.85;;;;;;;11.27;63.39;98662.91;3170620;28;20048;-64
2023/04/01 07:02:25;;;;;;;15.38;5.93;;;;;;;10.68;63.14;98563.47;3164430;28;20101;-65
2023/04/01 07:04:00;;;;;;;12.02;5.50;;;;;;;11.29;63.15;98671.44;3159832;28;20048;-66
2023/04/01 07:05:33;;;;;;;13.70;5.07;;;;;;;11.28;63.27;98668.94;3159096;28;20460;-66
2023/04/01 07:07:13;;;;;;;9.52;5.40;;;;;;;11.32;63.25;98665.19;3170034;28;20440;-66
2023/04/01 07:08:46;;;;;;;9.60;4.72;;;;;;;11.29;63.32;98665.41;3170738;28;20056;-65
2023/04/01 07:10:24;;;;;;;10.75;5.55;;;;;;;11.30;63.52;98660.09;3170717;28;20108;-65
2023/04/01 07:12:02;;;;;;;11.80;4.93;;;;;;;11.34;63.48;98642.47;3170819;28;20055;-65
2023/04/01 07:13:37;;;;;;;10.38;5.00;;;;;;;11.40;63.63;98636.84;3161813;28;20073;-65
2023/04/01 07:15:17;;;;;;;10.80;4.55;;;;;;;11.46;63.26;98640.81;3169946;28;20486;-65
2023/04/01 07:16:52;;;;;;;11.93;5.07;;;;;;;11.46;63.73;98644.25;3170746;28;20582;-65
2023/04/01 07:18:33;;;;;;;8.13;4.85;;;;;;;11.46;63.64;98638.22;3169697;28;20509;-65
2023/04/01 07:20:14;;;;;;;13.77;5.18;;;;;;;11.49;63.74;98641.44;3166568;28;20051;-65
2023/04/01 07:21:50;;;;;;;13.35;5.90;;;;;;;11.56;63.80;98627.03;3170127;28;20047;-65
2023/04/01 07:23:26;;;;;;;11.10;4.60;;;;;;;11.27;63.62;98571.69;3170562;28;20122;-66
2023/04/01 07:25:02;;;;;;;8.77;5.00;;;;;;;11.66;63.51;98627.28;3170573;28;20058;-65